createdAt,value
2022-10-05T00:00:48.662Z,5.30
2022-10-05T00:03:15.501Z,4.30
2022-10-05T00:05:45.640Z,4.50
2022-10-05T00:08:21.812Z,3.93
2022-10-05T00:10:49.832Z,3.90
2022-10-05T00:13:28.324Z,4.03
2022-10-05T00:16:11.389Z,4.03
2022-10-05T00:18:39.545Z,4.10
2022-10-05T00:21:20.038Z,3.43
2022-10-05T00:23:48.488Z,3.53
2022-10-05T00:26:25.878Z,4.37
2022-10-05T00:28:54.132Z,5.63
2022-10-05T00:31:26.654Z,6.30
2022-10-05T00:33:55.009Z,6.37
2022-10-05T00:36:23.338Z,5.27
2022-10-05T00:38:51.026Z,4.20
2022-10-05T00:41:59.851Z,4.30
2022-10-05T00:44:36.837Z,3.40
2022-10-05T00:47:44.666Z,4.30
2022-10-05T00:50:23.716Z,3.93
2022-10-05T00:53:05.309Z,5.97
2022-10-05T00:56:03.120Z,6.83
2022-10-05T00:59:00.482Z,7.93
2022-10-05T01:01:34.520Z,7.73
2022-10-05T01:04:56.531Z,7.20
2022-10-05T01:07:56.544Z,7.93
2022-10-05T01:10:38.892Z,6.90
2022-10-05T01:13:41.551Z,8.63
2022-10-05T01:16:23.929Z,7.23
2022-10-05T01:19:39.333Z,8.57
2022-10-05T01:22:37.088Z,10.03
2022-10-05T01:25:49.134Z,8.83
2022-10-05T01:28:30.917Z,7.63
2022-10-05T01:31:27.238Z,7.87
2022-10-05T01:34:13.638Z,7.63
2022-10-05T01:37:04.681Z,7.63
2022-10-05T01:39:54.782Z,7.83
2022-10-05T01:42:41.216Z,7.23
2022-10-05T01:45:27.460Z,6.87
2022-10-05T01:48:22.594Z,6.77
2022-10-05T01:51:20.292Z,6.40
2022-10-05T01:54:09.088Z,6.07
2022-10-05T01:57:06.853Z,6.90
2022-10-05T01:59:39.626Z,6.80
2022-10-05T02:02:25.933Z,6.30
2022-10-05T02:05:08.812Z,6.63
2022-10-05T02:07:38.262Z,6.40
2022-10-05T02:10:33.269Z,6.17
2022-10-05T02:13:13.656Z,4.90
2022-10-05T02:15:55.233Z,4.67
2022-10-05T02:18:30.101Z,4.97
2022-10-05T02:20:59.441Z,4.83
2022-10-05T02:23:32.821Z,5.50
2022-10-05T02:26:01.483Z,6.23
2022-10-05T02:28:45.796Z,6.07
2022-10-05T02:31:31.380Z,5.07
2022-10-05T02:34:36.724Z,4.90
2022-10-05T02:37:44.136Z,4.40
2022-10-05T02:41:04.948Z,4.97
2022-10-05T02:44:02.789Z,4.00
2022-10-05T02:47:23.808Z,4.80
2022-10-05T02:50:15.333Z,4.37
2022-10-05T02:53:03.616Z,5.00
2022-10-05T02:55:45.833Z,5.80
2022-10-05T02:58:19.400Z,5.70
2022-10-05T03:00:54.572Z,5.67
2022-10-05T03:03:34.054Z,5.63
2022-10-05T03:06:05.346Z,6.47
2022-10-05T03:08:38.203Z,5.60
2022-10-05T03:11:21.488Z,5.80
2022-10-05T03:14:10.202Z,5.90
2022-10-05T03:17:07.000Z,5.13
2022-10-05T03:19:43.761Z,5.37
2022-10-05T03:22:50.200Z,5.40
2022-10-05T03:25:52.039Z,5.53
2022-10-05T03:28:55.253Z,4.27
2022-10-05T03:32:01.060Z,4.53
2022-10-05T03:35:02.377Z,4.47
2022-10-05T03:38:22.532Z,4.37
2022-10-05T03:41:33.381Z,4.07
2022-10-05T03:44:24.260Z,4.10
2022-10-05T03:47:15.024Z,4.13
2022-10-05T03:50:17.505Z,4.17
2022-10-05T03:53:04.051Z,4.10
2022-10-05T03:55:45.674Z,3.57
2022-10-05T03:58:26.366Z,3.97
2022-10-05T04:01:06.272Z,3.60
2022-10-05T04:03:36.570Z,3.90
2022-10-05T04:06:36.987Z,4.43
2022-10-05T04:09:26.522Z,3.73
2022-10-05T04:12:28.706Z,4.40
2022-10-05T04:15:05.038Z,3.77
2022-10-05T04:17:42.792Z,3.77
2022-10-05T04:20:36.517Z,3.30
2022-10-05T04:23:38.443Z,3.77
2022-10-05T04:26:51.244Z,3.23
2022-10-05T04:29:45.137Z,3.30
2022-10-05T04:32:31.316Z,3.43
2022-10-05T04:35:53.661Z,2.93
2022-10-05T04:38:59.269Z,3.60
2022-10-05T04:42:25.723Z,3.93
2022-10-05T04:45:11.236Z,3.20
2022-10-05T04:47:46.852Z,4.07
2022-10-05T04:50:48.092Z,4.03
2022-10-05T04:53:56.267Z,4.70
2022-10-05T04:56:40.288Z,3.70
2022-10-05T04:59:13.089Z,4.03
2022-10-05T05:02:19.790Z,3.97
2022-10-05T05:05:19.865Z,4.43
2022-10-05T05:08:25.321Z,3.70
2022-10-05T05:11:16.186Z,3.90
2022-10-05T05:14:02.793Z,4.10
2022-10-05T05:16:42.066Z,4.00
2022-10-05T05:19:40.278Z,3.93
2022-10-05T05:22:27.766Z,4.13
2022-10-05T05:25:13.187Z,3.27
2022-10-05T05:27:47.457Z,3.30
2022-10-05T05:30:24.082Z,3.40
2022-10-05T05:33:19.607Z,3.60
2022-10-05T05:36:01.666Z,4.20
2022-10-05T05:38:39.854Z,3.50
2022-10-05T05:41:43.649Z,3.63
2022-10-05T05:44:26.845Z,2.97
2022-10-05T05:47:14.210Z,2.97
2022-10-05T05:50:21.113Z,3.20
2022-10-05T05:52:55.205Z,3.00
2022-10-05T05:55:47.512Z,3.57
2022-10-05T05:58:17.222Z,3.20
2022-10-05T06:01:32.588Z,3.33
2022-10-05T06:04:41.762Z,3.27
2022-10-05T06:07:18.057Z,4.77
2022-10-05T06:10:06.100Z,4.67
2022-10-05T06:12:42.003Z,4.50
2022-10-05T06:15:46.214Z,3.30
2022-10-05T06:18:17.463Z,3.10
2022-10-05T06:21:02.878Z,3.40
2022-10-05T06:24:02.427Z,4.00
2022-10-05T06:27:06.408Z,4.13
2022-10-05T06:30:00.935Z,4.30
2022-10-05T06:32:52.457Z,3.20
2022-10-05T06:35:46.996Z,2.80
2022-10-05T06:39:03.671Z,3.10
2022-10-05T06:42:07.338Z,3.27
2022-10-05T06:44:49.296Z,3.60
2022-10-05T06:47:36.144Z,4.27
2022-10-05T06:50:24.602Z,5.10
2022-10-05T06:53:17.021Z,3.53
2022-10-05T06:56:18.844Z,3.57
2022-10-05T06:59:06.488Z,3.50
2022-10-05T07:02:26.881Z,3.13
2022-10-05T07:05:11.608Z,2.77
2022-10-05T07:08:01.142Z,2.90
2022-10-05T07:11:28.880Z,2.50
2022-10-05T07:14:11.799Z,2.47
2022-10-05T07:17:28.342Z,1.90
2022-10-05T07:20:03.761Z,2.17
2022-10-05T07:23:09.122Z,2.10
2022-10-05T07:26:03.658Z,1.80
2022-10-05T07:28:41.256Z,2.00
2022-10-05T07:31:25.909Z,1.80
2022-10-05T07:34:44.334Z,1.83
2022-10-05T07:37:54.640Z,1.70
2022-10-05T07:40:29.823Z,1.60
2022-10-05T07:43:40.306Z,1.50
2022-10-05T07:47:00.758Z,1.70
2022-10-05T07:50:04.667Z,1.90
2022-10-05T07:52:49.320Z,2.07
2022-10-05T07:55:25.701Z,1.60
2022-10-05T07:58:23.622Z,1.57
2022-10-05T08:00:56.354Z,1.67
2022-10-05T08:03:56.552Z,1.60
2022-10-05T08:06:26.978Z,1.80
2022-10-05T08:09:13.454Z,1.73
2022-10-05T08:12:28.023Z,1.77
2022-10-05T08:14:57.658Z,1.80
2022-10-05T08:17:55.831Z,1.70
2022-10-05T08:20:48.589Z,1.80
2022-10-05T08:23:44.564Z,2.03
2022-10-05T08:26:38.654Z,1.70
2022-10-05T08:29:30.981Z,2.00
2022-10-05T08:32:03.677Z,1.60
2022-10-05T08:35:14.948Z,1.70
2022-10-05T08:37:44.232Z,1.60
2022-10-05T08:40:39.894Z,1.47
2022-10-05T08:44:25.438Z,1.60
2022-10-05T08:47:16.881Z,1.77
2022-10-05T08:50:10.410Z,2.10
2022-10-05T08:53:40.213Z,2.00
2022-10-05T08:56:29.055Z,2.40
2022-10-05T08:59:45.498Z,2.07
2022-10-05T09:02:42.884Z,2.00
2022-10-05T09:05:43.444Z,2.20
2022-10-05T09:08:44.217Z,1.90
2022-10-05T09:11:13.349Z,1.90
2022-10-05T09:14:13.488Z,2.20
2022-10-05T09:17:15.573Z,2.50
2022-10-05T09:20:27.021Z,2.20
2022-10-05T09:23:18.020Z,2.20
2022-10-05T09:26:24.089Z,1.87
2022-10-05T09:29:34.635Z,1.90
2022-10-05T09:32:54.465Z,2.27
2022-10-05T09:35:53.404Z,2.23
2022-10-05T09:38:40.615Z,1.90
2022-10-05T09:41:34.268Z,1.93
2022-10-05T09:44:33.391Z,2.17
2022-10-05T09:47:17.228Z,1.70
2022-10-05T09:50:30.769Z,2.00
2022-10-05T09:53:47.098Z,1.63
2022-10-05T09:56:22.547Z,2.20
2022-10-05T09:59:25.221Z,1.70
2022-10-05T10:02:17.426Z,11.47
2022-10-05T10:05:25.921Z,3.03
2022-10-05T10:08:43.584Z,2.03
2022-10-05T10:11:59.625Z,1.60
2022-10-05T10:15:00.591Z,2.30
2022-10-05T10:18:10.332Z,1.80
2022-10-05T10:21:01.663Z,1.70
2022-10-05T10:24:24.531Z,2.00
2022-10-05T10:27:18.760Z,1.90
2022-10-05T10:30:27.589Z,1.83
2022-10-05T10:33:36.341Z,1.70
2022-10-05T10:36:37.686Z,1.77
2022-10-05T10:39:45.144Z,1.70
2022-10-05T10:42:49.257Z,1.53
2022-10-05T10:45:28.697Z,1.40
2022-10-05T10:48:23.731Z,1.77
2022-10-05T10:51:04.493Z,2.07
2022-10-05T10:54:04.801Z,1.70
2022-10-05T10:57:15.836Z,1.50
2022-10-05T11:00:21.298Z,2.00
2022-10-05T11:03:28.340Z,1.87
2022-10-05T11:06:26.146Z,1.63
2022-10-05T11:09:25.515Z,1.47
2022-10-05T11:12:39.771Z,1.53
2022-10-05T11:15:43.855Z,1.70
2022-10-05T11:18:28.912Z,1.47
2022-10-05T11:21:26.090Z,1.30
2022-10-05T11:24:38.673Z,1.63
2022-10-05T11:27:43.679Z,1.40
2022-10-05T11:30:50.323Z,1.50
2022-10-05T11:34:13.441Z,1.17
2022-10-05T11:37:04.304Z,1.50
2022-10-05T11:40:14.649Z,1.40
2022-10-05T11:43:17.733Z,1.30
2022-10-05T11:46:20.245Z,1.70
2022-10-05T11:49:22.131Z,1.43
2022-10-05T11:51:57.711Z,1.40
2022-10-05T11:55:10.554Z,1.40
2022-10-05T11:57:49.589Z,1.57
2022-10-05T12:00:22.844Z,1.40
2022-10-05T12:03:26.051Z,1.40
2022-10-05T12:06:17.726Z,1.40
2022-10-05T12:09:14.571Z,1.40
2022-10-05T12:12:05.909Z,1.20
2022-10-05T12:15:00.812Z,1.50
2022-10-05T12:17:44.418Z,1.20
2022-10-05T12:20:24.796Z,1.43
2022-10-05T12:23:28.307Z,1.40
2022-10-05T12:26:04.588Z,1.37
2022-10-05T12:28:42.323Z,1.50
2022-10-05T12:31:42.829Z,1.50
2022-10-05T12:34:49.998Z,1.13
2022-10-05T12:37:42.039Z,1.10
2022-10-05T12:40:24.018Z,1.10
2022-10-05T12:43:18.413Z,1.25
2022-10-05T12:46:21.613Z,1.10
2022-10-05T12:49:21.669Z,1.10
2022-10-05T12:51:58.761Z,1.38
2022-10-05T12:54:33.926Z,1.33
2022-10-05T12:57:40.998Z,1.30
2022-10-05T13:00:22.706Z,1.30
2022-10-05T13:03:28.574Z,1.20
2022-10-05T13:06:26.425Z,1.30
2022-10-05T13:09:11.436Z,1.30
2022-10-05T13:11:46.224Z,1.40
2022-10-05T13:14:54.797Z,1.25
2022-10-05T13:18:08.032Z,1.30
2022-10-05T13:20:45.602Z,1.20
2022-10-05T13:23:26.301Z,1.15
2022-10-05T13:26:03.426Z,1.00
2022-10-05T13:28:59.550Z,1.20
2022-10-05T13:31:42.749Z,1.40
2022-10-05T13:34:40.254Z,1.05
2022-10-05T13:37:35.792Z,1.40
2022-10-05T13:40:21.741Z,1.10
2022-10-05T13:43:06.636Z,1.08
2022-10-05T13:45:56.994Z,1.30
2022-10-05T13:48:58.179Z,1.10
2022-10-05T13:51:53.548Z,1.20
2022-10-05T13:54:32.678Z,1.00
2022-10-05T13:57:24.800Z,1.30
2022-10-05T13:59:57.470Z,1.27
2022-10-05T14:02:38.418Z,1.40
2022-10-05T14:05:20.957Z,1.35
2022-10-05T14:08:04.121Z,1.25
2022-10-05T14:10:33.886Z,1.20
2022-10-05T14:13:20.056Z,1.20
2022-10-05T14:16:23.292Z,1.23
2022-10-05T14:19:27.953Z,1.25
2022-10-05T14:22:02.117Z,1.00
2022-10-05T14:24:44.599Z,1.23
2022-10-05T14:27:35.120Z,0.90
2022-10-05T14:30:11.955Z,1.10
2022-10-05T14:32:59.101Z,1.23
2022-10-05T14:35:31.101Z,1.30
2022-10-05T14:38:01.540Z,1.00
2022-10-05T14:40:34.107Z,1.33
2022-10-05T14:43:16.615Z,1.45
2022-10-05T14:46:23.366Z,1.20
2022-10-05T14:49:12.954Z,1.50
2022-10-05T14:51:42.151Z,2.80
2022-10-05T14:54:59.149Z,1.80
2022-10-05T14:58:03.305Z,2.50
2022-10-05T15:00:40.110Z,2.40
2022-10-05T15:03:35.885Z,1.52
2022-10-05T15:06:11.743Z,1.92
2022-10-05T15:09:17.026Z,1.65
2022-10-05T15:11:55.919Z,1.50
2022-10-05T15:14:32.622Z,1.45
2022-10-05T15:17:29.512Z,2.00
2022-10-05T15:20:16.140Z,3.67
2022-10-05T15:22:50.341Z,3.60
2022-10-05T15:25:27.795Z,2.70
2022-10-05T15:28:19.190Z,2.20
2022-10-05T15:31:16.240Z,3.43
2022-10-05T15:33:53.705Z,3.80
2022-10-05T15:36:35.562Z,2.93
2022-10-05T15:39:12.521Z,2.27
2022-10-05T15:42:00.357Z,1.50
2022-10-05T15:44:57.487Z,1.60
2022-10-05T15:48:04.336Z,1.80
2022-10-05T15:51:15.374Z,1.87
2022-10-05T15:54:17.709Z,1.90
2022-10-05T15:57:34.641Z,1.67
2022-10-05T16:00:11.020Z,1.60
2022-10-05T16:02:42.116Z,1.60
2022-10-05T16:05:55.812Z,1.90
2022-10-05T16:08:55.762Z,2.70
2022-10-05T16:12:02.431Z,3.20
2022-10-05T16:14:35.279Z,2.80
2022-10-05T16:17:40.907Z,2.23
2022-10-05T16:20:28.899Z,2.20
2022-10-05T16:23:23.192Z,2.03
2022-10-05T16:26:36.415Z,2.10
2022-10-05T16:29:16.299Z,1.90
2022-10-05T16:32:07.609Z,1.97
2022-10-05T16:35:24.878Z,1.90
2022-10-05T16:38:13.190Z,1.83
2022-10-05T16:41:09.520Z,1.90
2022-10-05T16:44:03.458Z,1.83
2022-10-05T16:46:40.009Z,2.10
2022-10-05T16:49:21.954Z,3.40
2022-10-05T16:52:00.228Z,4.30
2022-10-05T16:55:03.393Z,3.00
2022-10-05T16:57:37.701Z,3.10
2022-10-05T17:00:20.849Z,2.53
2022-10-05T17:03:21.945Z,2.87
2022-10-05T17:06:15.544Z,3.13
2022-10-05T17:09:32.003Z,2.83
2022-10-05T17:12:32.731Z,2.73
2022-10-05T17:15:14.782Z,2.77
2022-10-05T17:18:16.578Z,2.80
2022-10-05T17:21:15.646Z,2.97
2022-10-05T17:24:07.555Z,2.77
2022-10-05T17:26:56.465Z,2.90
2022-10-05T17:29:26.471Z,3.27
2022-10-05T17:32:33.573Z,3.07
2022-10-05T17:35:02.894Z,2.70
2022-10-05T17:37:39.152Z,2.90
2022-10-05T17:40:32.534Z,2.73
2022-10-05T17:43:15.382Z,3.30
2022-10-05T17:45:42.037Z,2.83
2022-10-05T17:48:12.847Z,2.90
2022-10-05T17:51:07.202Z,2.60
2022-10-05T17:54:01.728Z,2.63
2022-10-05T17:56:30.634Z,3.43
2022-10-05T17:59:02.517Z,2.90
2022-10-05T18:01:39.156Z,3.00
2022-10-05T18:04:12.093Z,2.70
2022-10-05T18:06:48.042Z,2.17
2022-10-05T18:09:20.278Z,2.40
2022-10-05T18:12:11.250Z,2.17
2022-10-05T18:15:23.127Z,2.47
2022-10-05T18:17:57.124Z,2.13
2022-10-05T18:20:32.054Z,2.23
2022-10-05T18:23:09.412Z,1.80
2022-10-05T18:26:16.198Z,1.83
2022-10-05T18:28:48.808Z,1.80
2022-10-05T18:31:36.850Z,1.97
2022-10-05T18:34:20.144Z,1.80
2022-10-05T18:37:00.801Z,1.40
2022-10-05T18:40:03.179Z,1.60
2022-10-05T18:42:40.086Z,1.60
2022-10-05T18:45:39.396Z,1.60
2022-10-05T18:48:46.843Z,1.60
2022-10-05T18:51:51.649Z,1.30
2022-10-05T18:55:05.520Z,1.60
2022-10-05T18:58:05.538Z,1.37
2022-10-05T19:01:09.503Z,1.60
2022-10-05T19:04:04.789Z,1.40
2022-10-05T19:06:56.730Z,1.47
2022-10-05T19:10:08.824Z,1.60
2022-10-05T19:13:01.941Z,1.60
2022-10-05T19:15:50.373Z,1.43
2022-10-05T19:18:37.276Z,1.40
2022-10-05T19:21:35.533Z,1.50
2022-10-05T19:24:22.626Z,1.50
2022-10-05T19:27:11.805Z,1.60
2022-10-05T19:30:17.938Z,1.30
2022-10-05T19:33:22.029Z,1.90
2022-10-05T19:36:04.824Z,1.60
2022-10-05T19:38:37.365Z,1.53
2022-10-05T19:41:22.430Z,1.60
2022-10-05T19:44:14.017Z,1.63
2022-10-05T19:46:52.615Z,1.70
2022-10-05T19:49:54.255Z,1.70
2022-10-05T19:52:47.545Z,1.60
2022-10-05T19:55:24.112Z,1.50
2022-10-05T19:57:57.924Z,1.57
2022-10-05T20:00:26.165Z,1.90
2022-10-05T20:03:09.962Z,3.17
2022-10-05T20:05:36.850Z,3.60
2022-10-05T20:08:06.105Z,3.23
2022-10-05T20:10:33.130Z,2.80
2022-10-05T20:13:03.870Z,3.20
2022-10-05T20:15:54.846Z,3.10
2022-10-05T20:19:06.949Z,3.00
2022-10-05T20:22:00.508Z,2.47
2022-10-05T20:24:49.608Z,2.67
2022-10-05T20:27:52.081Z,2.17
2022-10-05T20:30:22.584Z,2.00
2022-10-05T20:32:51.120Z,2.23
2022-10-05T20:35:22.979Z,1.87
2022-10-05T20:37:52.309Z,1.90
2022-10-05T20:40:20.304Z,2.30
2022-10-05T20:42:47.834Z,2.50
2022-10-05T20:45:14.671Z,2.37
2022-10-05T20:47:42.331Z,2.37
2022-10-05T20:50:10.611Z,1.97
2022-10-05T20:52:38.279Z,2.13
2022-10-05T20:55:09.912Z,2.40
2022-10-05T20:57:42.187Z,2.10
2022-10-05T21:00:11.502Z,2.20
2022-10-05T21:02:39.394Z,2.53
2022-10-05T21:05:07.660Z,2.33
2022-10-05T21:07:34.826Z,2.37
2022-10-05T21:10:03.622Z,2.23
2022-10-05T21:12:30.509Z,2.27
2022-10-05T21:14:59.181Z,2.60
2022-10-05T21:17:25.979Z,2.27
2022-10-05T21:19:52.729Z,2.70
2022-10-05T21:22:19.555Z,2.10
2022-10-05T21:24:46.669Z,2.13
2022-10-05T21:27:13.456Z,2.37
2022-10-05T21:29:44.111Z,2.23
2022-10-05T21:32:11.777Z,2.30
2022-10-05T21:34:39.973Z,2.33
2022-10-05T21:37:07.861Z,2.20
2022-10-05T21:39:35.268Z,3.10
2022-10-05T21:42:02.201Z,2.50
2022-10-05T21:44:29.020Z,3.13
2022-10-05T21:46:56.532Z,2.70
2022-10-05T21:49:24.449Z,2.57
2022-10-05T21:51:51.462Z,2.50
2022-10-05T21:54:21.477Z,2.43
2022-10-05T21:56:54.781Z,2.53
2022-10-05T21:59:28.443Z,2.93
2022-10-05T22:01:55.258Z,2.50
2022-10-05T22:04:22.236Z,2.57
2022-10-05T22:06:49.161Z,2.67
2022-10-05T22:09:15.973Z,2.40
2022-10-05T22:11:45.685Z,3.00
2022-10-05T22:14:15.456Z,2.83
2022-10-05T22:16:43.993Z,2.87
2022-10-05T22:19:19.932Z,2.67
2022-10-05T22:21:47.071Z,2.90
2022-10-05T22:24:13.861Z,2.57
2022-10-05T22:26:43.915Z,2.50
2022-10-05T22:29:10.848Z,2.87
2022-10-05T22:31:38.341Z,2.80
2022-10-05T22:34:05.673Z,2.50
2022-10-05T22:36:35.302Z,3.20
2022-10-05T22:39:02.405Z,2.83
2022-10-05T22:41:29.263Z,3.20
2022-10-05T22:43:56.028Z,2.60
2022-10-05T22:46:22.909Z,2.60
2022-10-05T22:48:49.753Z,3.33
2022-10-05T22:51:16.565Z,2.50
2022-10-05T22:53:43.397Z,2.60
2022-10-05T22:56:13.980Z,2.87
2022-10-05T22:58:42.558Z,3.20
2022-10-05T23:01:13.136Z,2.50
2022-10-05T23:03:40.886Z,2.50
2022-10-05T23:06:19.922Z,2.70
2022-10-05T23:08:47.009Z,2.90
2022-10-05T23:11:26.854Z,2.70
2022-10-05T23:13:57.975Z,2.57
2022-10-05T23:16:28.012Z,2.93
2022-10-05T23:18:55.071Z,2.87
2022-10-05T23:21:23.944Z,2.73
2022-10-05T23:23:53.818Z,3.13
2022-10-05T23:26:23.908Z,3.07
2022-10-05T23:28:50.923Z,2.97
2022-10-05T23:31:22.067Z,2.63
2022-10-05T23:33:48.950Z,2.93
2022-10-05T23:36:19.884Z,3.10
2022-10-05T23:38:47.127Z,2.97
2022-10-05T23:41:14.193Z,2.87
2022-10-05T23:43:41.001Z,2.73
2022-10-05T23:46:08.919Z,2.73
2022-10-05T23:48:38.888Z,2.80
2022-10-05T23:51:08.566Z,2.67
2022-10-05T23:53:35.657Z,2.50
2022-10-05T23:56:03.344Z,2.80
2022-10-05T23:58:30.910Z,2.33
